Time;durP1;ratioP1;P1;durP2;ratioP2;P2;SDS_P1;SDS_P2;PMS_P1;PMS_P2;Temp;Humidity;BMP_temperature;BMP_pressure;BME280_temperature;BME280_humidity;BME280_pressure;Samples;Min_cycle;Max_cycle;Signal;HPM_P1;HPM_P2
2023/10/09 00:01:49;;;;;;;;;;;;;;;14.10;100.00;102002.72;5035424;28;20002;-75
2023/10/09 00:04:15;;;;;;;;;;;;;;;14.01;100.00;102006.13;5016593;28;20118;-75
2023/10/09 00:06:42;;;;;;;;;;;;;;;14.02;100.00;102011.41;5029826;28;20416;-76
2023/10/09 00:09:17;;;;;;;;;;;;;;;14.00;100.00;101997.16;5028117;28;19972;-76
2023/10/09 00:11:44;;;;;;;;;;;;;;;13.95;100.00;102007.44;5050939;28;19920;-76
2023/10/09 00:14:10;;;;;;;;;;;;;;;13.91;100.00;101993.31;5036197;28;19924;-76
2023/10/09 00:16:40;;;;;;;;;;;;;;;13.77;100.00;101986.22;5030490;28;19960;-75
2023/10/09 00:19:18;;;;;;;;;;;;;;;13.76;100.00;101981.78;5035586;28;20057;-76
2023/10/09 00:21:44;;;;;;;;;;;;;;;13.71;100.00;101980.41;5040810;28;20282;-78
2023/10/09 00:24:13;;;;;;;;;;;;;;;13.68;100.00;101968.00;5030255;28;19938;-77
2023/10/09 00:26:45;;;;;;;;;;;;;;;13.69;100.00;101982.38;5031598;28;19924;-77
2023/10/09 00:29:23;;;;;;;;;;;;;;;13.73;100.00;101971.22;5034886;28;19921;-76
2023/10/09 00:32:03;;;;;;;;;;;;;;;13.70;100.00;101973.28;5024527;28;19924;-75
2023/10/09 00:34:28;;;;;;;;;;;;;;;13.69;100.00;101969.72;5046821;28;20369;-74
2023/10/09 00:36:54;;;;;;;;;;;;;;;13.76;100.00;101970.16;5032976;28;19916;-77
2023/10/09 00:39:40;;;;;;;;;;;;;;;13.85;100.00;101979.41;5031885;28;19938;-74
2023/10/09 00:42:06;;;;;;;;;;;;;;;13.91;100.00;101978.94;5037907;28;19921;-75
2023/10/09 00:44:38;;;;;;;;;;;;;;;14.02;100.00;101983.56;5053897;28;19928;-75
2023/10/09 00:47:20;;;;;;;;;;;;;;;14.10;100.00;101983.81;5052239;28;19975;-74
2023/10/09 00:49:45;;;;;;;;;;;;;;;14.15;100.00;101989.75;5037823;28;19920;-77
2023/10/09 00:52:18;;;;;;;;;;;;;;;14.20;100.00;101984.88;5034098;28;20275;-76
2023/10/09 00:54:44;;;;;;;;;;;;;;;14.29;100.00;101985.16;5031188;28;19925;-74
2023/10/09 00:57:13;;;;;;;;;;;;;;;14.31;100.00;101986.75;5033413;28;19920;-75
2023/10/09 00:59:38;;;;;;;;;;;;;;;14.28;100.00;101980.75;5021132;28;20404;-75
2023/10/09 01:02:06;;;;;;;;;;;;;;;14.25;100.00;101981.81;5021745;28;19925;-76
2023/10/09 01:04:32;;;;;;;;;;;;;;;14.30;100.00;101982.34;5022747;28;19928;-76
2023/10/09 01:07:15;;;;;;;;;;;;;;;14.32;100.00;101983.09;5018849;28;19920;-75
2023/10/09 01:09:43;;;;;;;;;;;;;;;14.27;100.00;101976.31;5034060;28;20663;-76
2023/10/09 01:12:16;;;;;;;;;;;;;;;14.33;100.00;101979.41;5034663;28;19920;-74
2023/10/09 01:14:41;;;;;;;;;;;;;;;14.33;100.00;101983.94;5035547;28;19920;-75
2023/10/09 01:17:07;;;;;;;;;;;;;;;14.34;100.00;101980.25;5011733;28;19921;-76
2023/10/09 01:19:33;;;;;;;;;;;;;;;14.30;100.00;101985.03;5021031;28;19944;-75
2023/10/09 01:22:04;;;;;;;;;;;;;;;14.33;100.00;101981.22;5051819;28;19920;-76
2023/10/09 01:24:31;;;;;;;;;;;;;;;14.37;100.00;101969.22;5030076;28;19940;-75
2023/10/09 01:26:59;;;;;;;;;;;;;;;14.36;100.00;101968.38;5020576;28;19947;-75
2023/10/09 01:29:27;;;;;;;;;;;;;;;14.38;100.00;101969.13;5033934;28;19924;-76
2023/10/09 01:31:56;;;;;;;;;;;;;;;14.38;100.00;101960.13;5037220;28;19924;-75
2023/10/09 01:34:25;;;;;;;;;;;;;;;14.41;100.00;101962.59;5036643;28;19928;-75
2023/10/09 01:36:54;;;;;;;;;;;;;;;14.42;100.00;101974.28;5032496;28;19924;-75
2023/10/09 01:39:26;;;;;;;;;;;;;;;14.39;100.00;101970.84;5018238;28;19994;-76
2023/10/09 01:41:58;;;;;;;;;;;;;;;14.38;100.00;101962.84;5035277;28;19933;-76
2023/10/09 01:44:25;;;;;;;;;;;;;;;14.40;100.00;101969.88;5035352;28;20034;-75
2023/10/09 01:46:54;;;;;;;;;;;;;;;14.42;100.00;101969.72;5050555;28;20023;-75
2023/10/09 01:49:29;;;;;;;;;;;;;;;14.39;100.00;101962.75;5035283;28;19924;-76
2023/10/09 01:51:55;;;;;;;;;;;;;;;14.21;100.00;101939.81;5036352;28;20425;-75
2023/10/09 01:54:36;;;;;;;;;;;;;;;14.40;100.00;101960.88;5035209;28;19920;-75
2023/10/09 01:57:05;;;;;;;;;;;;;;;14.42;100.00;101953.53;5022973;28;19921;-75
2023/10/09 01:59:31;;;;;;;;;;;;;;;14.43;100.00;101968.75;5030185;28;20311;-75
2023/10/09 02:01:58;;;;;;;;;;;;;;;14.38;100.00;101957.44;5034485;28;19990;-76
2023/10/09 02:04:23;;;;;;;;;;;;;;;14.43;100.00;101959.81;5034719;28;20326;-74
2023/10/09 02:06:52;;;;;;;;;;;;;;;14.31;100.00;101945.38;5035067;28;19947;-75
2023/10/09 02:09:22;;;;;;;;;;;;;;;14.49;100.00;101959.31;5014825;28;19928;-75
2023/10/09 02:11:48;;;;;;;;;;;;;;;14.52;100.00;101959.06;5034694;28;20007;-75
2023/10/09 02:14:19;;;;;;;;;;;;;;;14.52;100.00;101962.66;5035268;28;19925;-74
2023/10/09 02:17:03;;;;;;;;;;;;;;;14.52;100.00;101956.38;5019271;28;19920;-74
2023/10/09 02:19:34;;;;;;;;;;;;;;;14.47;100.00;101951.34;5035871;28;19928;-75
2023/10/09 02:22:02;;;;;;;;;;;;;;;14.53;100.00;101937.34;5051522;28;19974;-75
2023/10/09 02:27:12;;;;;;;;;;;;;;;14.57;100.00;101940.66;5035718;28;19927;-75
2023/10/09 02:29:38;;;;;;;;;;;;;;;14.64;100.00;101944.63;5014042;28;20155;-75
2023/10/09 02:32:13;;;;;;;;;;;;;;;14.67;100.00;101927.31;5016939;28;20224;-75
2023/10/09 02:34:38;;;;;;;;;;;;;;;14.66;100.00;101926.44;5035507;28;19957;-74
2023/10/09 02:37:12;;;;;;;;;;;;;;;14.72;100.00;101927.84;5034133;28;19925;-74
2023/10/09 02:39:43;;;;;;;;;;;;;;;14.74;100.00;101916.88;5048148;28;19920;-75
2023/10/09 02:42:23;;;;;;;;;;;;;;;14.66;100.00;101912.06;5018612;28;20209;-75
2023/10/09 02:44:51;;;;;;;;;;;;;;;14.68;100.00;101911.00;5020987;28;19928;-75
2023/10/09 02:47:38;;;;;;;;;;;;;;;14.68;100.00;101904.69;5033738;28;19920;-74
2023/10/09 02:50:08;;;;;;;;;;;;;;;14.72;100.00;101914.31;5036190;28;19920;-74
2023/10/09 02:52:40;;;;;;;;;;;;;;;14.74;100.00;101908.78;5018380;28;20117;-75
2023/10/09 02:55:22;;;;;;;;;;;;;;;14.70;100.00;101914.44;5031844;28;19988;-73
2023/10/09 02:57:51;;;;;;;;;;;;;;;14.78;100.00;101913.84;5035301;28;19920;-75
2023/10/09 03:00:28;;;;;;;;;;;;;;;14.81;100.00;101913.59;5018163;28;19944;-75
2023/10/09 03:02:53;;;;;;;;;;;;;;;14.79;100.00;101912.88;5018158;28;20076;-75
2023/10/09 03:05:20;;;;;;;;;;;;;;;14.79;100.00;101909.28;5044977;28;19924;-76
2023/10/09 03:07:45;;;;;;;;;;;;;;;14.74;100.00;101900.66;5016473;28;20004;-75
2023/10/09 03:10:11;;;;;;;;;;;;;;;14.67;100.00;101894.88;5033165;28;20339;-75
2023/10/09 03:12:36;;;;;;;;;;;;;;;14.72;100.00;101890.00;5033559;28;19920;-75
2023/10/09 03:15:05;;;;;;;;;;;;;;;14.69;100.00;101887.53;5015283;28;20019;-75
2023/10/09 03:17:34;;;;;;;;;;;;;;;14.66;100.00;101883.22;5018797;28;19924;-74
2023/10/09 03:19:59;;;;;;;;;;;;;;;14.67;100.00;101879.53;5033749;28;19925;-75
2023/10/09 03:22:24;;;;;;;;;;;;;;;14.69;100.00;101888.41;5037874;28;20245;-73
2023/10/09 03:24:52;;;;;;;;;;;;;;;14.66;100.00;101879.63;5014420;28;19925;-74
2023/10/09 03:27:18;;;;;;;;;;;;;;;14.70;100.00;101878.44;5027660;28;19943;-75
2023/10/09 03:29:49;;;;;;;;;;;;;;;14.69;100.00;101885.69;5050249;28;20399;-74
2023/10/09 03:32:14;;;;;;;;;;;;;;;14.74;100.00;101870.94;5029945;28;19921;-74
2023/10/09 03:34:39;;;;;;;;;;;;;;;14.74;100.00;101869.09;5014373;28;20302;-74
2023/10/09 03:37:04;;;;;;;;;;;;;;;14.71;100.00;101863.94;5031361;28;20286;-74
2023/10/09 03:42:05;;;;;;;;;;;;;;;14.74;100.00;101855.59;5032211;28;19926;-73
2023/10/09 03:44:35;;;;;;;;;;;;;;;14.81;100.00;101864.06;5033674;28;19924;-75
2023/10/09 03:47:01;;;;;;;;;;;;;;;14.89;100.00;101868.84;5015733;28;20389;-75
2023/10/09 03:49:27;;;;;;;;;;;;;;;14.88;100.00;101869.84;5022128;28;20635;-75
2023/10/09 03:51:52;;;;;;;;;;;;;;;14.90;100.00;101871.47;5029930;28;20382;-76
2023/10/09 03:54:20;;;;;;;;;;;;;;;14.88;100.00;101862.59;5027702;28;20752;-74
2023/10/09 03:56:46;;;;;;;;;;;;;;;14.92;100.00;101855.09;5048720;28;20021;-75
2023/10/09 03:59:12;;;;;;;;;;;;;;;14.94;100.00;101847.72;5038222;28;20697;-75
2023/10/09 04:01:38;;;;;;;;;;;;;;;14.81;100.00;101834.34;5033293;28;19928;-73
2023/10/09 04:04:05;;;;;;;;;;;;;;;14.99;100.00;101859.03;5031171;28;19975;-74
2023/10/09 04:06:32;;;;;;;;;;;;;;;15.04;100.00;101855.94;5046442;28;20299;-75
2023/10/09 04:09:13;;;;;;;;;;;;;;;15.06;100.00;101857.56;5050679;28;19917;-75
2023/10/09 04:11:42;;;;;;;;;;;;;;;15.02;100.00;101849.81;5031779;28;19994;-75
2023/10/09 04:14:12;;;;;;;;;;;;;;;15.02;100.00;101841.69;5031745;28;20039;-75
2023/10/09 04:16:51;;;;;;;;;;;;;;;15.11;100.00;101854.47;5030228;28;20408;-75
2023/10/09 04:19:19;;;;;;;;;;;;;;;15.12;100.00;101857.03;5034727;28;19931;-75
2023/10/09 04:21:44;;;;;;;;;;;;;;;15.09;100.00;101853.75;5053257;28;19927;-76
2023/10/09 04:24:22;;;;;;;;;;;;;;;15.10;100.00;101867.13;5038480;28;19924;-76
2023/10/09 04:26:47;;;;;;;;;;;;;;;15.09;100.00;101865.44;5032309;28;19927;-75
2023/10/09 04:29:37;;;;;;;;;;;;;;;15.14;100.00;101871.31;5032772;28;19920;-76
2023/10/09 04:32:02;;;;;;;;;;;;;;;15.16;100.00;101892.84;5034350;28;19974;-76
2023/10/09 04:37:24;;;;;;;;;;;;;;;15.16;100.00;101887.44;5049531;28;19936;-75
2023/10/09 04:40:01;;;;;;;;;;;;;;;15.23;100.00;101885.91;5030929;28;19958;-74
2023/10/09 04:42:36;;;;;;;;;;;;;;;15.24;100.00;101894.91;5034545;28;20066;-75
2023/10/09 04:47:39;;;;;;;;;;;;;;;15.26;100.00;101904.63;5027124;28;19955;-74
2023/10/09 04:50:11;;;;;;;;;;;;;;;15.32;100.00;101921.34;5033381;28;20110;-76
2023/10/09 05:03:12;;;;;;;;;;;;;;;15.18;100.00;101884.59;5046430;28;19931;-76
2023/10/09 05:08:54;;;;;;;;;;;;;;;15.12;100.00;101884.09;5031256;28;19966;-75
2023/10/09 05:16:03;;;;;;;;;;;;;;;15.05;100.00;101863.06;5031144;28;20063;-74
2023/10/09 05:18:36;;;;;;;;;;;;;;;14.93;100.00;101860.41;5034102;28;20769;-76
2023/10/09 05:21:35;;;;;;;;;;;;;;;14.92;100.00;101874.03;5036369;28;19924;-75
2023/10/09 05:24:15;;;;;;;;;;;;;;;14.98;100.00;101882.50;5036481;28;21629;-75
2023/10/09 05:26:50;;;;;;;;;;;;;;;15.00;100.00;101893.22;5028447;28;20278;-75
2023/10/09 05:29:19;;;;;;;;;;;;;;;15.00;100.00;101901.31;5031562;28;19927;-75
2023/10/09 05:32:02;;;;;;;;;;;;;;;15.04;100.00;101910.91;5051055;28;20366;-75
2023/10/09 05:34:33;;;;;;;;;;;;;;;15.03;100.00;101909.19;5048401;28;19916;-74
2023/10/09 05:37:17;;;;;;;;;;;;;;;15.08;100.00;101923.22;5032650;28;20284;-74
2023/10/09 05:39:43;;;;;;;;;;;;;;;15.08;100.00;101914.22;5030380;28;19920;-75
2023/10/09 05:42:17;;;;;;;;;;;;;;;15.02;100.00;101901.19;5030787;28;19916;-74
2023/10/09 05:47:31;;;;;;;;;;;;;;;14.97;100.00;101899.72;5047479;28;19991;-74
2023/10/09 05:53:04;;;;;;;;;;;;;;;15.01;100.00;101911.16;5030423;28;20389;-73
2023/10/09 06:08:47;;;;;;;;;;;;;;;15.10;100.00;101933.91;5036015;28;19930;-77
2023/10/09 06:16:59;;;;;;;;;;;;;;;15.04;100.00;101932.56;5033308;28;19992;-75
2023/10/09 06:19:28;;;;;;;;;;;;;;;15.09;100.00;101934.88;5049865;28;20377;-73
2023/10/09 06:24:43;;;;;;;;;;;;;;;15.10;100.00;101960.94;5047695;28;19975;-75
2023/10/09 06:29:50;;;;;;;;;;;;;;;15.17;100.00;101970.31;5030607;28;20316;-75
2023/10/09 06:34:53;;;;;;;;;;;;;;;15.22;100.00;101962.69;5045956;28;21622;-75
2023/10/09 06:42:34;;;;;;;;;;;;;;;15.10;100.00;101918.50;5031074;28;20056;-72
2023/10/09 06:45:07;;;;;;;;;;;;;;;15.00;100.00;101910.28;5018857;28;19924;-74
2023/10/09 06:47:42;;;;;;;;;;;;;;;14.97;100.00;101904.28;5031210;28;19927;-75
2023/10/09 06:56:01;;;;;;;;;;;;;;;15.12;100.00;101937.34;5035063;28;19923;-74
2023/10/09 06:58:28;;;;;;;;;;;;;;;14.98;100.00;101922.22;5047939;28;19921;-73
2023/10/09 07:03:51;;;;;;;;;;;;;;;14.99;100.00;101916.66;5035299;28;19936;-72
2023/10/09 07:14:32;;;;;;;;;;;;;;;14.96;100.00;101889.88;5045692;28;19947;-74
2023/10/09 07:17:15;;;;;;;;;;;;;;;15.06;100.00;101917.06;5033093;28;20122;-75
2023/10/09 07:22:16;;;;;;;;;;;;;;;15.26;100.00;101942.50;5033541;28;19921;-75
2023/10/09 07:24:49;;;;;;;;;;;;;;;15.25;100.00;101940.78;5046577;28;19960;-75
2023/10/09 07:27:15;;;;;;;;;;;;;;;15.32;100.00;101949.28;5035228;28;19935;-75
2023/10/09 07:29:50;;;;;;;;;;;;;;;15.30;100.00;101953.94;5025379;28;20117;-74
2023/10/09 07:32:21;;;;;;;;;;;;;;;15.42;100.00;101971.88;5028137;28;19932;-75
2023/10/09 07:34:53;;;;;;;;;;;;;;;15.50;100.00;101965.00;5047190;28;20149;-73
2023/10/09 07:37:22;;;;;;;;;;;;;;;15.48;100.00;101975.09;5027256;28;19924;-74
2023/10/09 07:39:49;;;;;;;;;;;;;;;15.52;100.00;101965.75;5028207;28;19920;-75
2023/10/09 07:42:18;;;;;;;;;;;;;;;15.55;100.00;101971.75;5049776;28;19921;-75
2023/10/09 07:44:52;;;;;;;;;;;;;;;15.58;100.00;101981.50;5048021;28;19924;-75
2023/10/09 07:47:19;;;;;;;;;;;;;;;15.61;100.00;101975.81;5032768;28;20163;-75
2023/10/09 07:49:51;;;;;;;;;;;;;;;15.49;100.00;101965.97;5014512;28;19955;-74
2023/10/09 07:52:16;;;;;;;;;;;;;;;15.45;100.00;101973.50;5033242;28;19974;-75
2023/10/09 07:54:49;;;;;;;;;;;;;;;15.52;100.00;101973.84;5035117;28;20385;-75
2023/10/09 07:57:25;;;;;;;;;;;;;;;15.44;100.00;101972.63;5036425;28;19947;-75
2023/10/09 08:02:34;;;;;;;;;;;;;;;15.35;100.00;101940.03;5032855;28;20481;-74
2023/10/09 08:05:03;;;;;;;;;;;;;;;15.27;100.00;101935.25;5036808;28;19916;-75
2023/10/09 08:07:35;;;;;;;;;;;;;;;15.27;100.00;101932.53;5033769;28;20019;-74
2023/10/09 08:17:53;;;;;;;;;;;;;;;15.33;100.00;101891.47;5054278;28;19931;-76
2023/10/09 08:20:24;;;;;;;;;;;;;;;15.39;100.00;101898.22;5033167;28;20834;-72
2023/10/09 08:22:52;;;;;;;;;;;;;;;15.41;100.00;101891.69;5054454;28;19924;-72
2023/10/09 08:25:26;;;;;;;;;;;;;;;15.57;100.00;101898.56;5034818;28;19931;-72
2023/10/09 08:27:55;;;;;;;;;;;;;;;15.67;100.00;101907.63;5024502;28;19935;-75
2023/10/09 08:33:01;;;;;;;;;;;;;;;15.86;100.00;101927.81;5036429;28;20288;-74
2023/10/09 08:35:29;;;;;;;;;;;;;;;16.04;100.00;101933.50;5037754;28;20499;-73
2023/10/09 08:38:10;;;;;;;;;;;;;;;16.26;100.00;101951.53;5039479;28;20499;-73
2023/10/09 08:40:39;;;;;;;;;;;;;;;16.37;100.00;101957.91;5037444;28;20760;-72
2023/10/09 08:43:17;;;;;;;;;;;;;;;16.50;100.00;101963.97;5034298;28;20149;-75
2023/10/09 08:45:46;;;;;;;;;;;;;;;16.63;100.00;101963.78;5033095;28;19924;-74
2023/10/09 08:48:15;;;;;;;;;;;;;;;16.71;100.00;101955.88;5020580;28;20402;-75
2023/10/09 08:50:42;;;;;;;;;;;;;;;16.79;100.00;101953.34;5052079;28;20038;-74
2023/10/09 08:53:07;;;;;;;;;;;;;;;16.86;100.00;101956.38;5036103;28;20256;-72
2023/10/09 08:55:32;;;;;;;;;;;;;;;16.92;100.00;101955.84;5034478;28;19927;-75
2023/10/09 08:57:58;;;;;;;;;;;;;;;17.09;100.00;101962.53;5033676;28;19924;-73
2023/10/09 09:00:23;;;;;;;;;;;;;;;17.18;100.00;101960.88;5049250;28;19923;-73
2023/10/09 09:02:55;;;;;;;;;;;;;;;17.30;100.00;101964.34;5051592;28;20317;-75
2023/10/09 09:05:20;;;;;;;;;;;;;;;17.39;100.00;101963.50;5029260;28;20010;-76
2023/10/09 09:07:45;;;;;;;;;;;;;;;17.49;100.00;101960.81;5052676;28;20493;-75
2023/10/09 09:10:17;;;;;;;;;;;;;;;17.58;100.00;101972.75;5034548;28;19994;-74
2023/10/09 09:12:45;;;;;;;;;;;;;;;17.68;100.00;101970.06;5022629;28;19943;-75
2023/10/09 09:15:18;;;;;;;;;;;;;;;17.72;100.00;101963.34;5032219;28;19928;-75
2023/10/09 09:17:45;;;;;;;;;;;;;;;17.80;100.00;101960.78;5021581;28;19916;-74
2023/10/09 09:20:24;;;;;;;;;;;;;;;17.88;100.00;101965.50;5030308;28;19929;-75
2023/10/09 09:22:56;;;;;;;;;;;;;;;17.83;100.00;101971.34;5031962;28;20228;-75
2023/10/09 09:25:24;;;;;;;;;;;;;;;17.91;100.00;101977.97;5030993;28;20015;-75
2023/10/09 09:27:52;;;;;;;;;;;;;;;17.97;100.00;101963.81;5031476;28;20355;-73
2023/10/09 09:30:33;;;;;;;;;;;;;;;17.95;100.00;101972.09;5030553;28;19928;-75
2023/10/09 09:33:15;;;;;;;;;;;;;;;18.07;100.00;101981.00;5028649;28;19920;-75
2023/10/09 09:35:54;;;;;;;;;;;;;;;18.36;100.00;101980.16;5028742;28;19927;-76
2023/10/09 09:38:22;;;;;;;;;;;;;;;18.51;100.00;101971.59;5023970;28;19963;-75
2023/10/09 09:40:53;;;;;;;;;;;;;;;18.53;100.00;101985.91;5024544;28;19921;-74
2023/10/09 09:43:22;;;;;;;;;;;;;;;18.79;100.00;101985.31;5031519;28;19979;-74
2023/10/09 09:45:49;;;;;;;;;;;;;;;18.96;100.00;101979.13;5012730;28;19936;-75
2023/10/09 09:48:16;;;;;;;;;;;;;;;19.14;100.00;101973.78;5012902;28;19936;-75
2023/10/09 09:50:44;;;;;;;;;;;;;;;19.17;100.00;101987.09;5012908;28;20004;-75
2023/10/09 09:53:16;;;;;;;;;;;;;;;19.18;100.00;101977.94;5029312;28;19917;-78
2023/10/09 09:55:57;;;;;;;;;;;;;;;19.21;100.00;101984.03;5027980;28;19943;-75
2023/10/09 09:58:37;;;;;;;;;;;;;;;19.25;100.00;101993.63;5025118;28;19962;-74
2023/10/09 10:01:15;;;;;;;;;;;;;;;19.32;100.00;101981.16;5025038;28;20346;-74
2023/10/09 10:03:43;;;;;;;;;;;;;;;19.39;100.00;101982.28;5026975;28;20016;-74
2023/10/09 10:06:12;;;;;;;;;;;;;;;19.44;100.00;101993.59;5025982;28;20459;-75
2023/10/09 10:08:39;;;;;;;;;;;;;;;19.41;100.00;101988.44;5023748;28;19916;-78
2023/10/09 10:11:04;;;;;;;;;;;;;;;19.37;100.00;101992.47;5010497;28;19963;-76
2023/10/09 10:13:42;;;;;;;;;;;;;;;19.59;100.00;101982.19;5027528;28;19928;-75
2023/10/09 10:16:13;;;;;;;;;;;;;;;19.69;100.00;101977.53;5029069;28;20418;-74
2023/10/09 10:19:00;;;;;;;;;;;;;;;19.55;100.00;101976.19;5028674;28;20363;-74
2023/10/09 10:24:05;;;;;;;;;;;;;;;19.74;100.00;101972.47;5044244;28;20005;-74
2023/10/09 10:26:33;;;;;;;;;;;;;;;19.90;100.00;101977.28;5047451;28;19920;-75
2023/10/09 10:29:22;;;;;;;;;;;;;;;20.03;100.00;101978.78;5026249;28;20361;-77
2023/10/09 10:31:56;;;;;;;;;;;;;;;19.97;100.00;101985.72;5049695;28;19976;-73
2023/10/09 10:34:23;;;;;;;;;;;;;;;20.22;100.00;101977.78;5045166;28;19920;-75
2023/10/09 10:36:52;;;;;;;;;;;;;;;20.45;100.00;101980.03;5025258;28;19924;-77
2023/10/09 10:39:42;;;;;;;;;;;;;;;20.57;100.00;101983.38;5030539;28;19927;-75
2023/10/09 10:42:09;;;;;;;;;;;;;;;20.56;100.00;101978.94;5017989;28;19924;-76
2023/10/09 10:44:36;;;;;;;;;;;;;;;20.62;100.00;101981.88;5029290;28;19924;-74
2023/10/09 10:47:03;;;;;;;;;;;;;;;20.57;100.00;101986.94;5016055;28;19921;-74
2023/10/09 10:49:36;;;;;;;;;;;;;;;20.67;100.00;101979.53;5027778;28;20049;-75
2023/10/09 10:52:15;;;;;;;;;;;;;;;20.66;100.00;101976.94;5036774;28;20239;-75
2023/10/09 10:57:19;;;;;;;;;;;;;;;21.23;100.00;101967.44;5030320;28;19921;-74
2023/10/09 10:59:44;;;;;;;;;;;;;;;21.48;100.00;101973.91;5027301;28;20045;-75
2023/10/09 11:04:41;;;;;;;;;;;;;;;21.80;100.00;101983.28;5046628;28;20002;-75
2023/10/09 11:07:12;;;;;;;;;;;;;;;21.48;100.00;101995.75;5032119;28;20389;-74
2023/10/09 11:09:58;;;;;;;;;;;;;;;21.16;100.00;101986.38;5018597;28;20153;-74
2023/10/09 11:12:23;;;;;;;;;;;;;;;21.23;100.00;101968.31;5029567;28;19955;-75
2023/10/09 11:15:29;;;;;;;;;;;;;;;21.33;100.00;101972.78;5030334;28;20373;-75
2023/10/09 11:18:04;;;;;;;;;;;;;;;21.85;100.00;101977.28;5036515;28;20674;-74
2023/10/09 11:20:32;;;;;;;;;;;;;;;22.46;100.00;101966.97;5049129;28;19932;-74
2023/10/09 11:23:14;;;;;;;;;;;;;;;22.71;100.00;101964.22;5016207;28;20475;-75
2023/10/09 11:25:52;;;;;;;;;;;;;;;23.10;100.00;101962.59;5036675;28;19924;-75
2023/10/09 11:28:29;;;;;;;;;;;;;;;22.97;100.00;101974.09;5053871;28;19920;-74
2023/10/09 11:30:55;;;;;;;;;;;;;;;23.02;100.00;101952.53;5053294;28;19976;-74
2023/10/09 11:33:21;;;;;;;;;;;;;;;23.30;100.00;101971.31;5033088;28;20332;-74
2023/10/09 11:35:57;;;;;;;;;;;;;;;23.52;100.00;101968.81;5052533;28;19920;-74
2023/10/09 11:38:23;;;;;;;;;;;;;;;23.15;100.00;101971.16;5030988;28;19921;-74
2023/10/09 11:43:51;;;;;;;;;;;;;;;22.31;100.00;101957.72;5052163;28;19924;-75
2023/10/09 11:46:11;;;;;;;;;;;;;;;22.22;100.00;101959.59;5049808;28;20290;-76
2023/10/09 11:49:13;;;;;;;;;;;;;;;21.81;100.00;101956.78;5031871;28;19916;-77
2023/10/09 11:51:21;;;;;;;;;;;;;;;21.64;100.00;101964.06;5049121;28;19920;-74
2023/10/09 11:53:49;;;;;;;;;;;;;;;21.60;100.00;101968.13;5053417;28;20297;-75
2023/10/09 11:56:17;;;;;;;;;;;;;;;21.53;100.00;101967.94;5051479;28;19928;-75
2023/10/09 11:58:42;;;;;;;;;;;;;;;21.42;100.00;101971.81;5052730;28;19924;-73
2023/10/09 12:01:20;;;;;;;;;;;;;;;21.30;100.00;101973.97;5055196;28;19920;-75
2023/10/09 12:03:49;;;;;;;;;;;;;;;21.52;100.00;101975.28;5034083;28;19921;-74
2023/10/09 12:06:14;;;;;;;;;;;;;;;21.69;100.00;101970.78;5050892;28;19970;-75
2023/10/09 12:08:43;;;;;;;;;;;;;;;21.88;100.00;101964.13;5035190;28;19920;-73
2023/10/09 12:11:09;;;;;;;;;;;;;;;21.84;100.00;101970.97;5036448;28;19928;-73
2023/10/09 12:13:34;;;;;;;;;;;;;;;21.90;100.00;101971.31;5035366;28;19959;-75
2023/10/09 12:16:00;;;;;;;;;;;;;;;21.90;100.00;101971.31;5030747;28;20439;-76
2023/10/09 12:18:25;;;;;;;;;;;;;;;21.93;100.00;101963.66;5027819;28;19924;-75
2023/10/09 12:20:50;;;;;;;;;;;;;;;22.43;100.00;101961.00;5029310;28;20109;-74
2023/10/09 12:23:16;;;;;;;;;;;;;;;23.01;100.00;101956.28;5033039;28;20033;-75
2023/10/09 12:25:44;;;;;;;;;;;;;;;23.39;100.00;101943.88;5017955;28;20345;-74
2023/10/09 12:28:12;;;;;;;;;;;;;;;23.19;100.00;101936.91;5030678;28;19978;-77
2023/10/09 12:30:39;;;;;;;;;;;;;;;22.77;100.00;101938.06;5047761;28;19951;-74
2023/10/09 12:33:07;;;;;;;;;;;;;;;22.70;100.00;101934.28;5032863;28;19932;-76
2023/10/09 12:35:35;;;;;;;;;;;;;;;22.46;100.00;101939.59;5017114;28;19940;-74
2023/10/09 12:38:01;;;;;;;;;;;;;;;22.46;100.00;101936.88;5034286;28;19917;-77
2023/10/09 12:40:30;;;;;;;;;;;;;;;22.53;100.00;101931.56;5034929;28;20363;-75
2023/10/09 12:42:58;;;;;;;;;;;;;;;22.64;100.00;101933.13;5034905;28;20011;-74
2023/10/09 12:45:26;;;;;;;;;;;;;;;22.89;100.00;101924.84;5028974;28;19916;-75
2023/10/09 12:47:59;;;;;;;;;;;;;;;22.87;100.00;101924.16;5033734;28;20042;-76
2023/10/09 12:50:33;;;;;;;;;;;;;;;23.58;100.00;101921.50;5019523;28;20023;-75
2023/10/09 12:53:02;;;;;;;;;;;;;;;23.75;100.00;101910.44;5029762;28;20351;-75
2023/10/09 12:55:31;;;;;;;;;;;;;;;23.57;100.00;101911.56;5015609;28;19928;-75
2023/10/09 12:58:00;;;;;;;;;;;;;;;23.52;100.00;101917.59;5021463;28;19993;-75
2023/10/09 13:00:25;;;;;;;;;;;;;;;23.49;100.00;101919.84;5049950;28;19920;-74
2023/10/09 13:02:51;;;;;;;;;;;;;;;23.13;100.00;101920.31;5044581;28;19926;-75
2023/10/09 13:05:26;;;;;;;;;;;;;;;23.10;100.00;101923.41;5050679;28;19920;-75
2023/10/09 13:07:51;;;;;;;;;;;;;;;22.86;100.00;101925.19;5046324;28;19947;-74
2023/10/09 13:10:16;;;;;;;;;;;;;;;22.64;100.00;101927.63;5028428;28;20274;-75
2023/10/09 13:12:41;;;;;;;;;;;;;;;22.66;100.00;101933.75;5050288;28;19964;-74
2023/10/09 13:15:10;;;;;;;;;;;;;;;23.25;100.00;101929.88;5045765;28;20019;-75
2023/10/09 13:17:36;;;;;;;;;;;;;;;23.61;100.00;101925.75;5033266;28;20195;-75
2023/10/09 13:20:03;;;;;;;;;;;;;;;24.09;100.00;101929.28;5019795;28;20007;-74
2023/10/09 13:22:30;;;;;;;;;;;;;;;24.00;100.00;101929.47;5046388;28;19925;-73
2023/10/09 13:25:03;;;;;;;;;;;;;;;23.73;100.00;101929.81;5048710;28;20023;-74
2023/10/09 13:27:33;;;;;;;;;;;;;;;24.81;100.00;101940.81;5050928;28;19920;-74
2023/10/09 13:30:05;;;;;;;;;;;;;;;25.56;97.43;101950.94;5033381;28;19967;-73
2023/10/09 13:32:33;;;;;;;;;;;;;;;25.62;93.37;101955.66;5051212;28;19927;-74
2023/10/09 13:35:02;;;;;;;;;;;;;;;25.39;94.32;101945.63;5026515;28;20350;-74
2023/10/09 13:37:27;;;;;;;;;;;;;;;25.15;91.17;101952.31;5051053;28;19924;-76
2023/10/09 13:39:52;;;;;;;;;;;;;;;24.60;99.00;101948.91;5051121;28;19927;-76
2023/10/09 13:42:17;;;;;;;;;;;;;;;24.48;94.43;101946.63;5048016;28;19924;-75
2023/10/09 13:44:43;;;;;;;;;;;;;;;24.36;92.12;101940.72;5048857;28;19963;-76
2023/10/09 13:47:18;;;;;;;;;;;;;;;24.61;93.72;101947.84;5053323;28;20041;-76
2023/10/09 13:49:44;;;;;;;;;;;;;;;24.48;91.43;101945.75;5034732;28;19947;-73
2023/10/09 13:52:09;;;;;;;;;;;;;;;24.26;94.49;101932.72;5050411;28;20051;-75
2023/10/09 13:57:00;;;;;;;;;;;;;;;24.24;100.00;101929.28;5047514;28;20309;-75
2023/10/09 13:59:25;;;;;;;;;;;;;;;23.70;98.29;101932.91;5049717;28;19983;-76
2023/10/09 14:01:51;;;;;;;;;;;;;;;23.44;100.00;101939.56;5031157;28;19951;-78
2023/10/09 14:04:19;;;;;;;;;;;;;;;23.32;100.00;101936.38;5048428;28;20367;-76
2023/10/09 14:06:44;;;;;;;;;;;;;;;23.07;100.00;101939.16;5047155;28;20418;-76
2023/10/09 14:09:10;;;;;;;;;;;;;;;22.62;100.00;101936.00;5052984;28;19950;-75
2023/10/09 14:11:39;;;;;;;;;;;;;;;22.62;100.00;101936.00;5048166;28;19924;-75
2023/10/09 14:14:09;;;;;;;;;;;;;;;22.58;100.00;101931.91;5045606;28;19925;-76
2023/10/09 14:16:35;;;;;;;;;;;;;;;22.38;100.00;101927.78;5051776;28;19920;-74
2023/10/09 14:19:00;;;;;;;;;;;;;;;22.16;100.00;101927.44;5050958;28;19969;-75
2023/10/09 14:21:30;;;;;;;;;;;;;;;22.31;100.00;101925.72;5033649;28;19928;-76
2023/10/09 14:23:56;;;;;;;;;;;;;;;22.23;100.00;101916.69;5047094;28;19935;-75
2023/10/09 14:26:23;;;;;;;;;;;;;;;22.05;100.00;101914.97;5034388;28;20190;-76
2023/10/09 14:28:49;;;;;;;;;;;;;;;22.02;100.00;101927.06;5032785;28;19924;-75
2023/10/09 14:31:20;;;;;;;;;;;;;;;21.97;100.00;101925.88;5046526;28;19921;-75
2023/10/09 14:33:51;;;;;;;;;;;;;;;21.56;100.00;101922.03;5047390;28;19928;-73
2023/10/09 14:36:16;;;;;;;;;;;;;;;21.58;100.00;101924.56;5030534;28;19940;-75